createdAt,value
2018-07-24T00:02:26.043Z,99.90
2018-07-24T00:04:53.310Z,99.90
2018-07-24T00:07:20.685Z,99.90
2018-07-24T00:09:47.989Z,99.90
2018-07-24T00:12:15.343Z,99.90
2018-07-24T00:14:42.682Z,99.90
2018-07-24T00:17:09.909Z,99.90
2018-07-24T00:19:37.169Z,99.90
2018-07-24T00:22:04.577Z,99.90
2018-07-24T00:24:32.051Z,99.90
2018-07-24T00:26:59.359Z,99.90
2018-07-24T00:29:26.609Z,99.90
2018-07-24T00:31:53.901Z,99.90
2018-07-24T00:34:21.164Z,99.90
2018-07-24T00:36:48.449Z,99.90
2018-07-24T00:41:43.094Z,99.90
2018-07-24T00:44:10.445Z,99.90
2018-07-24T00:46:37.710Z,99.90
2018-07-24T00:49:05.499Z,99.90
2018-07-24T00:51:32.845Z,99.90
2018-07-24T00:54:00.121Z,99.90
2018-07-24T00:56:27.434Z,99.90
2018-07-24T00:58:54.722Z,99.90
2018-07-24T01:01:22.094Z,99.90
2018-07-24T01:03:49.359Z,99.90
2018-07-24T01:06:16.613Z,99.90
2018-07-24T01:08:43.901Z,99.90
2018-07-24T01:11:11.167Z,99.90
2018-07-24T01:13:38.421Z,99.90
2018-07-24T01:16:06.129Z,99.90
2018-07-24T01:18:33.510Z,99.90
2018-07-24T01:23:28.173Z,99.90
2018-07-24T01:25:55.418Z,99.90
2018-07-24T01:28:22.682Z,99.90
2018-07-24T01:30:49.947Z,99.90
2018-07-24T01:33:17.248Z,99.90
2018-07-24T01:35:44.490Z,99.90
2018-07-24T01:38:11.814Z,99.90
2018-07-24T01:40:39.072Z,99.90
2018-07-24T01:43:06.377Z,99.90
2018-07-24T01:50:28.189Z,99.90
2018-07-24T01:52:55.493Z,99.90
2018-07-24T01:55:22.764Z,99.90
2018-07-24T01:57:50.123Z,99.90
2018-07-24T02:00:17.798Z,99.90
2018-07-24T02:02:45.077Z,99.90
2018-07-24T02:05:12.717Z,99.90
2018-07-24T02:07:40.364Z,99.90
2018-07-24T02:12:35.078Z,99.90
2018-07-24T02:15:02.461Z,99.90
2018-07-24T02:19:57.059Z,99.90
2018-07-24T02:22:24.508Z,99.90
2018-07-24T02:24:51.793Z,99.90
2018-07-24T02:27:19.078Z,99.90
2018-07-24T02:29:47.066Z,99.90
2018-07-24T02:32:14.971Z,99.90
2018-07-24T02:34:42.270Z,99.90
2018-07-24T02:37:09.910Z,99.90
2018-07-24T02:39:37.193Z,99.90
2018-07-24T02:42:04.653Z,99.90
2018-07-24T02:44:32.050Z,99.90
2018-07-24T02:46:59.346Z,99.90
2018-07-24T02:49:26.638Z,99.90
2018-07-24T02:54:21.327Z,99.90
2018-07-24T02:56:48.629Z,99.90
2018-07-24T03:01:43.259Z,99.90
2018-07-24T03:04:10.566Z,99.90
2018-07-24T03:06:37.828Z,99.90
2018-07-24T03:09:07.079Z,99.90
2018-07-24T03:11:34.358Z,99.90
2018-07-24T03:14:01.646Z,99.90
2018-07-24T03:16:28.967Z,99.90
2018-07-24T03:18:56.206Z,99.90
2018-07-24T03:21:23.528Z,99.90
2018-07-24T03:23:50.824Z,99.90
2018-07-24T03:26:18.122Z,99.90
2018-07-24T03:28:45.453Z,99.90
2018-07-24T03:33:39.983Z,99.90
2018-07-24T03:36:07.230Z,99.90
2018-07-24T03:38:34.510Z,99.90
2018-07-24T03:43:29.061Z,99.90
2018-07-24T03:45:56.346Z,99.90
2018-07-24T03:48:23.642Z,99.90
2018-07-24T03:50:50.934Z,99.90
2018-07-24T03:55:45.542Z,99.90
2018-07-24T03:58:12.811Z,99.90
2018-07-24T04:00:40.212Z,99.90
2018-07-24T04:03:07.490Z,99.90
2018-07-24T04:05:34.860Z,99.90
2018-07-24T04:08:02.135Z,99.90
2018-07-24T04:10:29.401Z,99.90
2018-07-24T04:12:56.677Z,99.90
2018-07-24T04:15:23.970Z,99.90
2018-07-24T04:17:51.261Z,99.90
2018-07-24T04:20:18.557Z,99.90
2018-07-24T04:22:45.834Z,99.90
2018-07-24T04:25:13.096Z,99.90
2018-07-24T04:27:40.385Z,99.90
2018-07-24T04:30:07.627Z,99.90
2018-07-24T04:32:34.953Z,99.90
2018-07-24T04:39:56.957Z,99.90
2018-07-24T04:42:24.186Z,99.90
2018-07-24T04:44:51.711Z,99.90
2018-07-24T04:47:19.042Z,99.90
2018-07-24T04:49:46.290Z,99.90
2018-07-24T04:52:13.612Z,99.90
2018-07-24T04:54:40.866Z,99.90
2018-07-24T04:57:08.230Z,99.90
2018-07-24T04:59:35.478Z,99.90
2018-07-24T05:02:02.773Z,99.90
2018-07-24T05:04:30.062Z,99.90
2018-07-24T05:06:57.342Z,99.90
2018-07-24T05:09:24.605Z,99.90
2018-07-24T05:11:51.855Z,99.90
2018-07-24T05:14:19.394Z,99.90
2018-07-24T05:16:46.770Z,99.90
2018-07-24T05:19:14.031Z,99.90
2018-07-24T05:21:41.326Z,99.90
2018-07-24T05:24:08.602Z,99.90
2018-07-24T05:26:36.470Z,99.90
2018-07-24T05:29:03.973Z,99.90
2018-07-24T05:31:31.430Z,99.90
2018-07-24T05:33:58.802Z,99.90
2018-07-24T05:36:26.243Z,99.90
2018-07-24T05:38:53.575Z,99.90
2018-07-24T05:41:20.941Z,99.90
2018-07-24T05:43:48.242Z,99.90
2018-07-24T05:46:15.866Z,99.90
2018-07-24T05:48:43.864Z,99.90
2018-07-24T05:51:11.163Z,99.90
2018-07-24T05:53:38.497Z,99.90
2018-07-24T05:56:05.766Z,99.90
2018-07-24T05:58:33.285Z,99.90
2018-07-24T06:01:00.591Z,99.90
2018-07-24T06:03:28.067Z,99.90
2018-07-24T06:05:55.447Z,99.90
2018-07-24T06:10:50.146Z,99.90
2018-07-24T06:13:17.481Z,99.90
2018-07-24T06:15:45.103Z,99.90
2018-07-24T06:18:12.394Z,99.90
2018-07-24T06:23:07.114Z,99.90
2018-07-24T06:25:34.461Z,99.90
2018-07-24T06:28:01.774Z,99.90
2018-07-24T06:30:29.123Z,99.90
2018-07-24T06:37:51.205Z,99.90
2018-07-24T06:40:18.575Z,99.90
2018-07-24T06:42:45.939Z,99.90
2018-07-24T06:45:14.151Z,99.90
2018-07-24T06:50:08.819Z,99.90
2018-07-24T06:52:36.181Z,99.90
2018-07-24T06:55:03.550Z,99.90
2018-07-24T06:57:30.896Z,99.90
2018-07-24T06:59:58.225Z,99.90
2018-07-24T07:02:25.581Z,99.90
2018-07-24T07:04:52.919Z,99.90
2018-07-24T07:07:20.281Z,99.90
2018-07-24T07:09:47.618Z,99.90
2018-07-24T07:17:09.875Z,99.90
2018-07-24T07:19:37.263Z,99.90
2018-07-24T07:22:04.663Z,99.90
2018-07-24T07:26:59.278Z,99.90
2018-07-24T07:29:26.717Z,99.90
2018-07-24T07:31:54.154Z,99.90
2018-07-24T07:34:21.466Z,99.90
2018-07-24T07:36:48.808Z,99.90
2018-07-24T07:39:16.210Z,99.90
2018-07-24T07:41:43.699Z,99.90
2018-07-24T07:44:11.020Z,99.90
2018-07-24T07:46:38.466Z,99.90
2018-07-24T07:49:05.809Z,99.90
2018-07-24T07:54:00.574Z,99.90
2018-07-24T07:56:27.903Z,99.90
2018-07-24T07:58:55.268Z,99.90
2018-07-24T08:01:22.572Z,99.90
2018-07-24T08:03:49.946Z,99.90
2018-07-24T08:06:17.333Z,99.90
2018-07-24T08:08:44.723Z,99.90
2018-07-24T08:11:12.331Z,99.90
2018-07-24T08:18:34.445Z,99.90
2018-07-24T08:21:01.758Z,99.90
2018-07-24T08:23:29.258Z,99.90
2018-07-24T08:25:56.623Z,99.90
2018-07-24T08:28:24.035Z,99.90
2018-07-24T08:30:52.437Z,99.90
2018-07-24T08:33:19.882Z,99.90
2018-07-24T08:35:47.211Z,99.90
2018-07-24T08:38:14.523Z,99.90
2018-07-24T08:40:41.832Z,99.90
2018-07-24T08:43:09.238Z,99.90
2018-07-24T08:48:04.179Z,99.90
2018-07-24T08:52:58.897Z,99.90
2018-07-24T08:55:26.303Z,99.90
2018-07-24T08:57:53.499Z,99.90
2018-07-24T09:00:20.878Z,99.90
2018-07-24T09:02:48.190Z,99.90
2018-07-24T09:07:42.838Z,99.90
2018-07-24T09:10:10.191Z,99.90
2018-07-24T09:15:04.927Z,99.90
2018-07-24T09:19:59.727Z,99.90
2018-07-24T09:22:27.096Z,99.90
2018-07-24T09:24:54.394Z,99.90
2018-07-24T09:29:49.175Z,99.90
2018-07-24T09:32:16.519Z,99.90
2018-07-24T09:34:43.979Z,99.90
2018-07-24T09:37:11.350Z,99.90
2018-07-24T09:39:38.718Z,99.90
2018-07-24T09:42:06.024Z,99.90
2018-07-24T09:44:33.363Z,99.90
2018-07-24T09:47:01.067Z,99.90
2018-07-24T09:49:28.414Z,99.90
2018-07-24T09:51:55.795Z,99.90
2018-07-24T09:54:23.185Z,99.90
2018-07-24T09:56:50.464Z,99.90
2018-07-24T09:59:18.016Z,99.90
2018-07-24T10:01:45.356Z,99.90
2018-07-24T10:04:12.665Z,99.90
2018-07-24T10:06:40.047Z,99.90
2018-07-24T10:09:08.691Z,99.90
2018-07-24T10:11:36.042Z,99.90
2018-07-24T10:14:03.378Z,99.90
2018-07-24T10:16:30.774Z,99.90
2018-07-24T10:18:58.195Z,99.90
2018-07-24T10:21:25.446Z,99.90
2018-07-24T10:23:52.876Z,99.90
2018-07-24T10:26:20.207Z,99.90
2018-07-24T10:28:47.592Z,99.90
2018-07-24T10:31:14.910Z,99.90
2018-07-24T10:33:42.239Z,99.90
2018-07-24T10:36:09.642Z,99.90
2018-07-24T10:38:37.214Z,99.90
2018-07-24T10:41:04.539Z,99.90
2018-07-24T10:45:59.178Z,99.90
2018-07-24T10:50:53.838Z,99.90
2018-07-24T10:53:21.246Z,99.90
2018-07-24T10:55:48.579Z,99.90
2018-07-24T10:58:15.882Z,99.90
2018-07-24T11:00:43.204Z,99.90
2018-07-24T11:03:10.738Z,99.90
2018-07-24T11:05:38.098Z,99.90
2018-07-24T11:08:05.652Z,99.90
2018-07-24T11:10:32.976Z,99.90
2018-07-24T11:13:00.349Z,99.90
2018-07-24T11:15:27.749Z,99.90
2018-07-24T11:17:55.068Z,99.90
2018-07-24T11:20:22.485Z,99.90
2018-07-24T11:22:49.866Z,99.90
2018-07-24T11:25:17.207Z,99.90
2018-07-24T11:27:44.511Z,99.90
2018-07-24T11:30:11.886Z,99.90
2018-07-24T11:32:39.315Z,99.90
2018-07-24T11:35:06.721Z,99.90
2018-07-24T11:37:34.098Z,99.90
2018-07-24T11:40:01.508Z,99.90
2018-07-24T11:42:28.923Z,99.90
2018-07-24T11:44:56.280Z,99.90
2018-07-24T11:47:23.637Z,99.90
2018-07-24T11:49:50.990Z,99.90
2018-07-24T11:52:18.393Z,99.90
2018-07-24T11:54:45.746Z,99.90
2018-07-24T11:57:13.145Z,99.90
2018-07-24T11:59:40.487Z,99.90
2018-07-24T12:02:07.923Z,99.90
2018-07-24T12:04:35.302Z,99.90
2018-07-24T12:07:02.691Z,99.90
2018-07-24T12:09:30.019Z,99.90
2018-07-24T12:11:57.350Z,99.90
2018-07-24T12:14:24.691Z,99.90
2018-07-24T12:16:52.027Z,99.90
2018-07-24T12:19:19.370Z,99.90
2018-07-24T12:21:46.754Z,99.90
2018-07-24T12:24:14.278Z,99.90
2018-07-24T12:29:09.151Z,99.90
2018-07-24T12:31:36.498Z,99.90
2018-07-24T12:34:03.939Z,99.90
2018-07-24T12:36:31.266Z,99.90
2018-07-24T12:38:58.604Z,99.90
2018-07-24T12:41:26.009Z,99.90
2018-07-24T12:43:53.311Z,99.90
2018-07-24T12:46:20.643Z,99.90
2018-07-24T12:48:47.989Z,99.90
2018-07-24T12:51:15.467Z,99.90
2018-07-24T12:53:42.799Z,99.90
2018-07-24T12:58:37.633Z,99.90
2018-07-24T13:01:04.951Z,99.90
2018-07-24T13:03:32.384Z,99.90
2018-07-24T13:08:27.547Z,99.90
2018-07-24T13:10:55.045Z,99.90
2018-07-24T13:13:22.458Z,99.90
2018-07-24T13:15:49.778Z,99.90
2018-07-24T13:18:17.240Z,99.90
2018-07-24T13:20:44.631Z,99.40
2018-07-24T13:23:12.006Z,98.90
2018-07-24T13:25:39.363Z,98.80
2018-07-24T13:28:06.787Z,98.40
2018-07-24T13:30:34.157Z,97.90
2018-07-24T13:33:01.526Z,98.30
2018-07-24T13:35:28.822Z,97.70
2018-07-24T13:37:56.166Z,97.90
2018-07-24T13:40:23.498Z,98.40
2018-07-24T13:42:50.831Z,99.70
2018-07-24T13:45:18.171Z,99.80
2018-07-24T13:47:45.467Z,99.10
2018-07-24T13:50:12.814Z,97.90
2018-07-24T13:52:40.147Z,97.60
2018-07-24T13:57:34.901Z,97.50
2018-07-24T14:00:02.269Z,98.60
2018-07-24T14:02:29.563Z,99.40
2018-07-24T14:04:56.865Z,99.90
2018-07-24T14:07:24.738Z,98.70
2018-07-24T14:09:52.131Z,98.30
2018-07-24T14:14:46.794Z,98.60
2018-07-24T14:17:14.354Z,97.70
2018-07-24T14:19:42.370Z,98.00
2018-07-24T14:22:09.804Z,97.50
2018-07-24T14:24:37.175Z,96.00
2018-07-24T14:27:04.524Z,95.20
2018-07-24T14:29:31.868Z,96.00
2018-07-24T14:31:59.206Z,95.90
2018-07-24T14:34:26.530Z,96.60
2018-07-24T14:36:53.927Z,95.80
2018-07-24T14:41:48.582Z,95.20
2018-07-24T14:44:15.996Z,94.90
2018-07-24T14:51:38.025Z,95.20
2018-07-24T14:54:05.390Z,95.20
2018-07-24T14:56:32.738Z,94.90
2018-07-24T14:59:00.158Z,95.20
2018-07-24T15:01:27.482Z,94.70
2018-07-24T15:06:22.363Z,94.60
2018-07-24T15:08:49.710Z,95.20
2018-07-24T15:11:17.097Z,94.50
2018-07-24T15:13:44.439Z,94.20
2018-07-24T15:16:11.734Z,94.50
2018-07-24T15:18:38.997Z,94.30
2018-07-24T15:21:06.320Z,94.00
2018-07-24T15:23:33.628Z,94.20
2018-07-24T15:26:00.932Z,93.70
2018-07-24T15:28:28.234Z,93.50
2018-07-24T15:30:55.554Z,94.20
2018-07-24T15:33:22.975Z,94.40
2018-07-24T15:35:50.228Z,94.00
2018-07-24T15:38:17.564Z,94.80
2018-07-24T15:40:44.829Z,94.30
2018-07-24T15:43:12.162Z,93.60
2018-07-24T15:45:39.454Z,93.60
2018-07-24T15:48:06.839Z,93.40
2018-07-24T15:50:34.122Z,93.90
2018-07-24T15:53:01.507Z,93.80
2018-07-24T15:55:28.841Z,93.70
2018-07-24T16:00:23.470Z,93.40
2018-07-24T16:02:50.849Z,93.10
2018-07-24T16:05:18.159Z,93.80
2018-07-24T16:07:45.477Z,93.20
2018-07-24T16:15:07.334Z,92.20
2018-07-24T16:17:34.664Z,92.10
2018-07-24T16:20:02.067Z,92.20
2018-07-24T16:22:29.397Z,92.10
2018-07-24T16:24:56.793Z,92.10
2018-07-24T16:27:24.209Z,92.70
2018-07-24T16:29:51.469Z,92.60
2018-07-24T16:32:18.860Z,92.60
2018-07-24T16:34:46.157Z,93.20
2018-07-24T16:37:13.556Z,93.20
2018-07-24T16:39:40.886Z,93.80
2018-07-24T16:42:08.254Z,93.10
2018-07-24T16:44:35.510Z,93.30
2018-07-24T16:47:02.888Z,93.30
2018-07-24T16:49:30.210Z,93.60
2018-07-24T16:54:24.802Z,93.50
2018-07-24T16:56:52.082Z,93.40
2018-07-24T16:59:19.361Z,93.50
2018-07-24T17:01:46.697Z,93.40
2018-07-24T17:04:14.023Z,93.50
2018-07-24T17:06:41.358Z,93.80
2018-07-24T17:09:09.986Z,94.20
2018-07-24T17:11:37.710Z,94.10
2018-07-24T17:14:05.091Z,93.70
2018-07-24T17:16:32.387Z,94.20
2018-07-24T17:21:27.020Z,93.80
2018-07-24T17:28:48.898Z,93.90
2018-07-24T17:31:16.350Z,94.20
2018-07-24T17:33:43.688Z,93.90
2018-07-24T17:36:11.066Z,94.00
2018-07-24T17:38:38.369Z,94.10
2018-07-24T17:41:05.867Z,94.10
2018-07-24T17:46:00.557Z,93.60
2018-07-24T17:48:28.195Z,93.70
2018-07-24T17:53:22.662Z,93.80
2018-07-24T17:55:50.084Z,93.80
2018-07-24T17:58:17.383Z,94.10
2018-07-24T18:00:44.648Z,94.10
2018-07-24T18:03:11.946Z,94.40
2018-07-24T18:05:39.250Z,94.40
2018-07-24T18:08:06.590Z,94.70
2018-07-24T18:10:33.879Z,94.80
2018-07-24T18:13:01.155Z,95.00
2018-07-24T18:15:28.528Z,95.10
2018-07-24T18:17:55.770Z,95.20
2018-07-24T18:20:23.078Z,95.30
2018-07-24T18:22:50.373Z,95.50
2018-07-24T18:25:17.765Z,96.00
2018-07-24T18:27:45.133Z,97.50
2018-07-24T18:30:12.353Z,98.00
2018-07-24T18:32:39.637Z,98.40
2018-07-24T18:35:07.287Z,98.60
2018-07-24T18:37:34.619Z,98.90
2018-07-24T18:40:01.996Z,99.70
2018-07-24T18:42:29.303Z,99.90
2018-07-24T18:44:56.597Z,99.90
2018-07-24T18:47:24.308Z,99.90
2018-07-24T18:49:51.565Z,99.90
2018-07-24T18:52:18.924Z,99.90
2018-07-24T18:54:46.198Z,99.90
2018-07-24T18:57:13.504Z,99.90
2018-07-24T18:59:40.823Z,99.90
2018-07-24T19:02:08.107Z,99.90
2018-07-24T19:04:35.401Z,99.90
2018-07-24T19:07:02.731Z,99.90
2018-07-24T19:09:30.065Z,99.90
2018-07-24T19:16:51.981Z,99.90
2018-07-24T19:21:46.568Z,99.90
2018-07-24T19:24:13.853Z,99.90
2018-07-24T19:26:41.178Z,99.90
2018-07-24T19:29:08.517Z,99.90
2018-07-24T19:31:35.959Z,99.90
2018-07-24T19:34:03.250Z,99.90
2018-07-24T19:36:30.656Z,99.90
2018-07-24T19:38:58.064Z,99.90
2018-07-24T19:41:25.413Z,99.90
2018-07-24T19:43:52.798Z,99.90
2018-07-24T19:46:20.027Z,99.90
2018-07-24T19:48:47.346Z,99.90
2018-07-24T19:51:14.642Z,99.90
2018-07-24T19:53:41.985Z,99.90
2018-07-24T19:58:36.594Z,99.90
2018-07-24T20:01:03.999Z,99.90
2018-07-24T20:03:31.343Z,99.90
2018-07-24T20:05:59.405Z,99.90
2018-07-24T20:08:26.717Z,99.90
2018-07-24T20:10:54.013Z,99.90
2018-07-24T20:13:25.105Z,99.90
2018-07-24T20:15:52.364Z,99.90
2018-07-24T20:18:19.755Z,99.90
2018-07-24T20:23:14.355Z,99.90
2018-07-24T20:25:41.782Z,99.90
2018-07-24T20:28:09.128Z,99.90
2018-07-24T20:30:36.547Z,99.90
2018-07-24T20:33:03.894Z,99.90
2018-07-24T20:35:31.296Z,99.90
2018-07-24T20:37:58.605Z,99.90
2018-07-24T20:40:25.956Z,99.90
2018-07-24T20:42:53.369Z,99.90
2018-07-24T20:45:20.716Z,99.90
2018-07-24T20:47:48.066Z,99.90
2018-07-24T20:50:15.542Z,99.90
2018-07-24T20:55:10.279Z,99.90
2018-07-24T20:57:37.693Z,99.90
2018-07-24T21:00:05.198Z,99.90
2018-07-24T21:02:32.496Z,99.90
2018-07-24T21:04:59.758Z,99.90
2018-07-24T21:09:54.427Z,99.90
2018-07-24T21:12:21.774Z,99.90
2018-07-24T21:14:49.202Z,99.90
2018-07-24T21:17:16.577Z,99.90
2018-07-24T21:22:11.186Z,99.90
2018-07-24T21:24:38.515Z,99.90
2018-07-24T21:27:05.889Z,99.90
2018-07-24T21:29:33.201Z,99.90
2018-07-24T21:32:00.467Z,99.90
2018-07-24T21:34:27.798Z,99.90
2018-07-24T21:36:55.065Z,99.90
2018-07-24T21:39:22.378Z,99.90
2018-07-24T21:41:49.686Z,99.90
2018-07-24T21:44:17.008Z,99.90
2018-07-24T21:46:44.328Z,99.90
2018-07-24T21:49:11.755Z,99.90
2018-07-24T21:51:38.975Z,99.90
2018-07-24T21:54:06.322Z,99.90
2018-07-24T21:56:33.583Z,99.90
2018-07-24T21:59:00.922Z,99.90
2018-07-24T22:03:55.611Z,99.90
2018-07-24T22:06:22.926Z,99.90
2018-07-24T22:11:17.552Z,99.90
2018-07-24T22:13:44.915Z,99.90
2018-07-24T22:16:12.244Z,99.90
2018-07-24T22:18:39.650Z,99.90
2018-07-24T22:21:07.347Z,99.90
2018-07-24T22:23:34.652Z,99.90
2018-07-24T22:26:01.973Z,99.90
2018-07-24T22:30:56.515Z,99.90
2018-07-24T22:33:23.942Z,99.90
2018-07-24T22:35:51.287Z,99.90
2018-07-24T22:38:18.558Z,99.90
2018-07-24T22:40:45.929Z,99.90
2018-07-24T22:43:13.278Z,99.90
2018-07-24T22:45:40.598Z,99.90
2018-07-24T22:50:35.258Z,99.90
2018-07-24T22:53:02.581Z,99.90
2018-07-24T22:55:29.977Z,99.90
2018-07-24T22:57:57.314Z,99.90
2018-07-24T23:00:24.615Z,99.90
2018-07-24T23:02:51.923Z,99.90
2018-07-24T23:05:19.286Z,99.90
2018-07-24T23:07:46.579Z,99.90
2018-07-24T23:10:13.884Z,99.90
2018-07-24T23:12:41.136Z,99.90
2018-07-24T23:15:08.432Z,99.90
2018-07-24T23:17:35.694Z,99.90
2018-07-24T23:20:03.037Z,99.90
2018-07-24T23:24:57.557Z,99.90
2018-07-24T23:27:25.032Z,99.90
2018-07-24T23:29:52.282Z,99.90
2018-07-24T23:32:19.578Z,99.90
2018-07-24T23:37:14.157Z,99.90
2018-07-24T23:39:42.158Z,99.90
2018-07-24T23:42:09.605Z,99.90
2018-07-24T23:44:36.909Z,99.90
2018-07-24T23:47:04.239Z,99.90
2018-07-24T23:49:31.581Z,99.90
2018-07-24T23:51:58.893Z,99.90
2018-07-24T23:54:26.209Z,99.90
2018-07-24T23:56:53.476Z,99.90
2018-07-24T23:59:20.794Z,99.90
